CSN7924 ZGSZ-HAAB
Flight info
| Callsign | CSN7924 |
|---|---|
| Flight time | N/A |
| Altitude | 34100 |
| Route | TOMUD V21 UDUTI V19 LH R339 WUY R474 NOB W21 BQ B214 AKSAG B465 CEA A791 JJS G450 OPAKA Q20 BBB P751 KRA B535 LAKBE |
| Aircraft | A359/H-SDE2E3GHIJ3J4J5LM1ORWXY/LB1D1 |
Departure
| Time | 2026-04-29 14:13 |
|---|---|
| Airport | Shenzhen Bao'an International Airport (ZGSZ) |
Arrival
| Time | N/A |
|---|---|
| Airport | Addis Ababa Bole International Airport (HAAB) |
| Time | Latitude | Longitude | Altitude | Speed | Heading |
|---|---|---|---|---|---|
| 2026-04-29 11:14 | 22.63017 | 113.81107 | 22 ft | 0 kts | 238° |
| 2026-04-29 13:43 | 22.63019 | 113.81111 | 25 ft | 3 kts | 238° |
| 2026-04-29 13:44 | 22.63029 | 113.81128 | 24 ft | 3 kts | 238° |
| 2026-04-29 13:44 | 22.63040 | 113.81146 | 23 ft | 3 kts | 238° |
| 2026-04-29 13:44 | 22.63050 | 113.81165 | 25 ft | 3 kts | 242° |
| 2026-04-29 13:44 | 22.63058 | 113.81185 | 27 ft | 3 kts | 257° |
| 2026-04-29 13:45 | 22.63060 | 113.81205 | 26 ft | 3 kts | 288° |
| 2026-04-29 13:45 | 22.63052 | 113.81219 | 24 ft | 1 kts | 333° |
| 2026-04-29 13:45 | 22.63036 | 113.81228 | 25 ft | 3 kts | 333° |
| 2026-04-29 13:45 | 22.63017 | 113.81238 | 25 ft | 3 kts | 333° |
| 2026-04-29 13:46 | 22.63002 | 113.81246 | 25 ft | 0 kts | 333° |
| 2026-04-29 13:51 | 22.63003 | 113.81246 | 26 ft | 1 kts | 333° |
| 2026-04-29 13:51 | 22.63029 | 113.81232 | 25 ft | 6 kts | 333° |
| 2026-04-29 13:51 | 22.63071 | 113.81209 | 23 ft | 8 kts | 333° |
| 2026-04-29 13:52 | 22.63122 | 113.81211 | 25 ft | 8 kts | 28° |
| 2026-04-29 13:52 | 22.63142 | 113.81259 | 25 ft | 7 kts | 104° |
| 2026-04-29 13:52 | 22.63104 | 113.81296 | 25 ft | 8 kts | 153° |
| 2026-04-29 13:52 | 22.63046 | 113.81328 | 22 ft | 10 kts | 153° |
| 2026-04-29 13:53 | 22.62978 | 113.81366 | 23 ft | 11 kts | 153° |
| 2026-04-29 13:53 | 22.62908 | 113.81404 | 24 ft | 11 kts | 153° |
| 2026-04-29 13:53 | 22.62837 | 113.81443 | 22 ft | 12 kts | 153° |
| 2026-04-29 13:53 | 22.62764 | 113.81484 | 23 ft | 12 kts | 153° |
| 2026-04-29 13:54 | 22.62689 | 113.81525 | 26 ft | 12 kts | 153° |
| 2026-04-29 13:54 | 22.62612 | 113.81567 | 25 ft | 12 kts | 153° |
| 2026-04-29 13:54 | 22.62536 | 113.81611 | 24 ft | 11 kts | 141° |
| 2026-04-29 13:54 | 22.62518 | 113.81675 | 24 ft | 8 kts | 83° |
| 2026-04-29 13:55 | 22.62527 | 113.81702 | 24 ft | 0 kts | 63° |
| 2026-04-29 14:11 | 22.62533 | 113.81715 | 24 ft | 5 kts | 63° |
| 2026-04-29 14:11 | 22.62562 | 113.81768 | 25 ft | 11 kts | 47° |
| 2026-04-29 14:12 | 22.62630 | 113.81776 | 22 ft | 10 kts | 333° |
| 2026-04-29 14:12 | 22.62651 | 113.81763 | 22 ft | 0 kts | 333° |
| 2026-04-29 14:12 | 22.62751 | 113.81709 | 24 ft | 43 kts | 333° |
| 2026-04-29 14:12 | 22.63219 | 113.81451 | 23 ft | 107 kts | 333° |
| 2026-04-29 14:13 | 22.64061 | 113.80983 | 27 ft | 163 kts | 333° |
| 2026-04-29 14:13 | 22.65124 | 113.80397 | 422 ft | 179 kts | 335° |
| 2026-04-29 14:13 | 22.66220 | 113.79794 | 1268 ft | 172 kts | 337° |
| 2026-04-29 14:13 | 22.67312 | 113.79198 | 1657 ft | 181 kts | 339° |
| 2026-04-29 14:14 | 22.68492 | 113.78562 | 1828 ft | 197 kts | 338° |
| 2026-04-29 14:14 | 22.69767 | 113.77870 | 1982 ft | 214 kts | 338° |
| 2026-04-29 14:14 | 22.71120 | 113.77130 | 2311 ft | 221 kts | 338° |
| 2026-04-29 14:14 | 22.72501 | 113.76368 | 2751 ft | 224 kts | 336° |
| 2026-04-29 14:15 | 22.73815 | 113.75402 | 3083 ft | 236 kts | 316° |
| 2026-04-29 14:15 | 22.74707 | 113.73881 | 3505 ft | 242 kts | 297° |
| 2026-04-29 14:15 | 22.75382 | 113.72217 | 4016 ft | 242 kts | 295° |
| 2026-04-29 14:15 | 22.76035 | 113.70552 | 4565 ft | 238 kts | 294° |
| 2026-04-29 14:16 | 22.76683 | 113.68927 | 5012 ft | 240 kts | 292° |
| 2026-04-29 14:16 | 22.77025 | 113.68059 | 5321 ft | 236 kts | 290° |
| 2026-04-29 14:16 | 22.77424 | 113.66346 | 5771 ft | 237 kts | 271° |
| 2026-04-29 14:16 | 22.77120 | 113.64584 | 6129 ft | 240 kts | 247° |
| 2026-04-29 14:17 | 22.76390 | 113.62963 | 6599 ft | 239 kts | 242° |
| 2026-04-29 14:17 | 22.75586 | 113.61380 | 7022 ft | 241 kts | 239° |
| 2026-04-29 14:17 | 22.74481 | 113.59999 | 7344 ft | 247 kts | 219° |
| 2026-04-29 14:17 | 22.72910 | 113.59223 | 7695 ft | 257 kts | 194° |
| 2026-04-29 14:18 | 22.71078 | 113.59310 | 7879 ft | 275 kts | 168° |
| 2026-04-29 14:18 | 22.69234 | 113.60008 | 8252 ft | 285 kts | 162° |
| 2026-04-29 14:18 | 22.67379 | 113.60803 | 8754 ft | 289 kts | 162° |
| 2026-04-29 14:18 | 22.65491 | 113.61605 | 9256 ft | 293 kts | 162° |
| 2026-04-29 14:19 | 22.63583 | 113.62400 | 9764 ft | 296 kts | 163° |
| 2026-04-29 14:19 | 22.61646 | 113.63197 | 10207 ft | 301 kts | 163° |
| 2026-04-29 14:19 | 22.59645 | 113.64012 | 10422 ft | 314 kts | 163° |
| 2026-04-29 14:19 | 22.57558 | 113.64859 | 10631 ft | 327 kts | 163° |
| 2026-04-29 14:20 | 22.55387 | 113.65732 | 10846 ft | 339 kts | 164° |
| 2026-04-29 14:20 | 22.53070 | 113.66303 | 11017 ft | 344 kts | 180° |
| 2026-04-29 14:20 | 22.50723 | 113.66002 | 11184 ft | 347 kts | 201° |
| 2026-04-29 14:20 | 22.48549 | 113.64852 | 11335 ft | 353 kts | 214° |
| 2026-04-29 14:21 | 22.46451 | 113.63415 | 11592 ft | 360 kts | 216° |
| 2026-04-29 14:21 | 22.44339 | 113.61930 | 11949 ft | 364 kts | 216° |
| 2026-04-29 14:21 | 22.42202 | 113.60437 | 12333 ft | 367 kts | 215° |
| 2026-04-29 14:21 | 22.40048 | 113.58944 | 12724 ft | 369 kts | 215° |
| 2026-04-29 14:22 | 22.37878 | 113.57446 | 13131 ft | 371 kts | 215° |
| 2026-04-29 14:22 | 22.35696 | 113.55945 | 13507 ft | 374 kts | 215° |
| 2026-04-29 14:22 | 22.33494 | 113.54435 | 13828 ft | 376 kts | 215° |
| 2026-04-29 14:22 | 22.31276 | 113.52913 | 14172 ft | 378 kts | 215° |
| 2026-04-29 14:23 | 22.29051 | 113.51387 | 14525 ft | 380 kts | 215° |
| 2026-04-29 14:23 | 22.26812 | 113.49853 | 14861 ft | 381 kts | 215° |
| 2026-04-29 14:23 | 22.24600 | 113.48291 | 15255 ft | 380 kts | 219° |
| 2026-04-29 14:23 | 22.22642 | 113.46383 | 15573 ft | 379 kts | 231° |
| 2026-04-29 14:24 | 22.21205 | 113.44013 | 15867 ft | 378 kts | 245° |
| 2026-04-29 14:24 | 22.20161 | 113.41408 | 16197 ft | 380 kts | 249° |
| 2026-04-29 14:24 | 22.19188 | 113.38744 | 16470 ft | 383 kts | 249° |
| 2026-04-29 14:24 | 22.18216 | 113.36069 | 16811 ft | 384 kts | 249° |
| 2026-04-29 14:25 | 22.17234 | 113.33383 | 17127 ft | 386 kts | 249° |
| 2026-04-29 14:25 | 22.16239 | 113.30680 | 17417 ft | 388 kts | 249° |
| 2026-04-29 14:25 | 22.15238 | 113.27972 | 17740 ft | 389 kts | 249° |
| 2026-04-29 14:25 | 22.14233 | 113.25257 | 18047 ft | 391 kts | 249° |
| 2026-04-29 14:26 | 22.13208 | 113.22531 | 18344 ft | 393 kts | 248° |
| 2026-04-29 14:26 | 22.12092 | 113.19836 | 18605 ft | 395 kts | 246° |
| 2026-04-29 14:26 | 22.10948 | 113.17137 | 18842 ft | 396 kts | 246° |
| 2026-04-29 14:26 | 22.09804 | 113.14424 | 19078 ft | 398 kts | 246° |
| 2026-04-29 14:27 | 22.08659 | 113.11697 | 19350 ft | 400 kts | 247° |
| 2026-04-29 14:27 | 22.07513 | 113.08957 | 19610 ft | 402 kts | 247° |
| 2026-04-29 14:27 | 22.06365 | 113.06207 | 19861 ft | 403 kts | 247° |
| 2026-04-29 14:28 | 22.04056 | 113.00673 | 20339 ft | 406 kts | 247° |
| 2026-04-29 14:28 | 22.02907 | 112.97883 | 20595 ft | 408 kts | 248° |
| 2026-04-29 14:28 | 22.01812 | 112.95059 | 20868 ft | 409 kts | 249° |
| 2026-04-29 14:28 | 22.00720 | 112.92218 | 21106 ft | 411 kts | 249° |
| 2026-04-29 14:29 | 21.99620 | 112.89368 | 21349 ft | 413 kts | 249° |
| 2026-04-29 14:29 | 21.98509 | 112.86504 | 21623 ft | 415 kts | 249° |
| 2026-04-29 14:29 | 21.97394 | 112.83638 | 21893 ft | 416 kts | 249° |
| 2026-04-29 14:29 | 21.96268 | 112.80754 | 22145 ft | 418 kts | 248° |
| 2026-04-29 14:30 | 21.95128 | 112.77909 | 22389 ft | 420 kts | 248° |
| 2026-04-29 14:30 | 21.93960 | 112.75025 | 22678 ft | 421 kts | 248° |
| 2026-04-29 14:30 | 21.92788 | 112.72131 | 22942 ft | 423 kts | 248° |
| 2026-04-29 14:30 | 21.91609 | 112.69216 | 23151 ft | 426 kts | 248° |
| 2026-04-29 14:31 | 21.90427 | 112.66294 | 23443 ft | 426 kts | 248° |
| 2026-04-29 14:31 | 21.89241 | 112.63362 | 23710 ft | 427 kts | 248° |
| 2026-04-29 14:31 | 21.88051 | 112.60419 | 23919 ft | 429 kts | 248° |
| 2026-04-29 14:31 | 21.86906 | 112.57454 | 24107 ft | 430 kts | 251° |
| 2026-04-29 14:32 | 21.86077 | 112.54358 | 24317 ft | 430 kts | 259° |
| 2026-04-29 14:32 | 21.85704 | 112.51162 | 24517 ft | 432 kts | 266° |
| 2026-04-29 14:32 | 21.85565 | 112.47929 | 24754 ft | 433 kts | 268° |
| 2026-04-29 14:32 | 21.85518 | 112.44692 | 24998 ft | 434 kts | 269° |
| 2026-04-29 14:33 | 21.85512 | 112.41438 | 25273 ft | 435 kts | 270° |
| 2026-04-29 14:33 | 21.85512 | 112.38181 | 25520 ft | 437 kts | 269° |
| 2026-04-29 14:33 | 21.85505 | 112.34905 | 25758 ft | 439 kts | 269° |
| 2026-04-29 14:33 | 21.85487 | 112.31611 | 26017 ft | 440 kts | 269° |
| 2026-04-29 14:34 | 21.85458 | 112.28313 | 26310 ft | 441 kts | 269° |
| 2026-04-29 14:34 | 21.85422 | 112.25005 | 26566 ft | 443 kts | 269° |
| 2026-04-29 14:34 | 21.85381 | 112.21671 | 26746 ft | 447 kts | 269° |
| 2026-04-29 14:34 | 21.85338 | 112.18317 | 26988 ft | 449 kts | 269° |
| 2026-04-29 14:35 | 21.85294 | 112.14952 | 27261 ft | 450 kts | 269° |
| 2026-04-29 14:35 | 21.85250 | 112.11581 | 27555 ft | 451 kts | 269° |
| 2026-04-29 14:35 | 21.85205 | 112.08197 | 27861 ft | 452 kts | 269° |
| 2026-04-29 14:35 | 21.85160 | 112.04814 | 28128 ft | 454 kts | 269° |
| 2026-04-29 14:36 | 21.85113 | 112.01408 | 28378 ft | 455 kts | 269° |
| 2026-04-29 14:36 | 21.85040 | 111.97999 | 28628 ft | 457 kts | 266° |
| 2026-04-29 14:36 | 21.84671 | 111.94603 | 28880 ft | 458 kts | 259° |
| 2026-04-29 14:36 | 21.83877 | 111.91275 | 29087 ft | 460 kts | 251° |
| 2026-04-29 14:37 | 21.82697 | 111.88067 | 29325 ft | 462 kts | 248° |
| 2026-04-29 14:37 | 21.81381 | 111.84899 | 29564 ft | 464 kts | 246° |
| 2026-04-29 14:37 | 21.80003 | 111.81759 | 29772 ft | 465 kts | 245° |
| 2026-04-29 14:37 | 21.78593 | 111.78618 | 30009 ft | 467 kts | 245° |
| 2026-04-29 14:38 | 21.77176 | 111.75478 | 30215 ft | 467 kts | 245° |
| 2026-04-29 14:38 | 21.75762 | 111.72331 | 30394 ft | 469 kts | 245° |
| 2026-04-29 14:38 | 21.74346 | 111.69163 | 30534 ft | 470 kts | 245° |
| 2026-04-29 14:38 | 21.72934 | 111.65990 | 30726 ft | 471 kts | 245° |
| 2026-04-29 14:39 | 21.71525 | 111.62810 | 30884 ft | 472 kts | 245° |
| 2026-04-29 14:39 | 21.70112 | 111.59619 | 31036 ft | 473 kts | 245° |
| 2026-04-29 14:39 | 21.68714 | 111.56461 | 31217 ft | 474 kts | 245° |
| 2026-04-29 14:39 | 21.67317 | 111.53307 | 31440 ft | 473 kts | 245° |
| 2026-04-29 14:40 | 21.65883 | 111.50074 | 31667 ft | 472 kts | 245° |
| 2026-04-29 14:40 | 21.63043 | 111.43673 | 31807 ft | 477 kts | 245° |
| 2026-04-29 14:40 | 21.61614 | 111.40457 | 32036 ft | 476 kts | 245° |
| 2026-04-29 14:41 | 21.60190 | 111.37254 | 32267 ft | 475 kts | 245° |
| 2026-04-29 14:41 | 21.58762 | 111.34046 | 32471 ft | 475 kts | 245° |
| 2026-04-29 14:41 | 21.57338 | 111.30847 | 32676 ft | 474 kts | 245° |
| 2026-04-29 14:41 | 21.55918 | 111.27660 | 32872 ft | 474 kts | 245° |
| 2026-04-29 14:42 | 21.54495 | 111.24469 | 33053 ft | 473 kts | 245° |
| 2026-04-29 14:42 | 21.53076 | 111.21286 | 33237 ft | 473 kts | 245° |
| 2026-04-29 14:42 | 21.51652 | 111.18098 | 33418 ft | 472 kts | 245° |
| 2026-04-29 14:42 | 21.50232 | 111.14917 | 33580 ft | 472 kts | 245° |
| 2026-04-29 14:43 | 21.48814 | 111.11743 | 33804 ft | 471 kts | 245° |
| 2026-04-29 14:43 | 21.47401 | 111.08584 | 34049 ft | 469 kts | 245° |
| 2026-04-29 14:43 | 21.45987 | 111.05423 | 34108 ft | 470 kts | 245° |
| 2026-04-29 14:44 | 21.43138 | 110.99061 | 34131 ft | 475 kts | 245° |
| 2026-04-29 14:44 | 21.40269 | 110.92662 | 34125 ft | 477 kts | 244° |
| 2026-04-29 14:45 | 21.37387 | 110.86242 | 34127 ft | 478 kts | 244° |
| 2026-04-29 14:45 | 21.34499 | 110.79819 | 34129 ft | 478 kts | 244° |
| 2026-04-29 14:46 | 21.31615 | 110.73410 | 34115 ft | 476 kts | 244° |
| 2026-04-29 14:46 | 21.28735 | 110.67020 | 34131 ft | 476 kts | 244° |
| 2026-04-29 14:47 | 21.25858 | 110.60642 | 34130 ft | 476 kts | 244° |
| 2026-04-29 14:47 | 21.22972 | 110.54254 | 34134 ft | 476 kts | 244° |
| 2026-04-29 14:48 | 21.20087 | 110.47875 | 34133 ft | 476 kts | 244° |
| 2026-04-29 14:48 | 21.17361 | 110.41439 | 34124 ft | 474 kts | 251° |
| 2026-04-29 14:49 | 21.16087 | 110.34522 | 34132 ft | 478 kts | 267° |
| 2026-04-29 14:49 | 21.16915 | 110.27456 | 34139 ft | 483 kts | 285° |
| 2026-04-29 14:50 | 21.19657 | 110.20866 | 34134 ft | 487 kts | 295° |
| 2026-04-29 14:50 | 21.22894 | 110.14492 | 34146 ft | 486 kts | 296° |
| 2026-04-29 14:51 | 21.26135 | 110.08215 | 34146 ft | 483 kts | 295° |
| 2026-04-29 14:51 | 21.29341 | 110.01905 | 34135 ft | 481 kts | 295° |
| 2026-04-29 14:52 | 21.32515 | 109.95589 | 34151 ft | 481 kts | 295° |
| 2026-04-29 14:52 | 21.35683 | 109.89261 | 34155 ft | 481 kts | 295° |
| 2026-04-29 14:53 | 21.38851 | 109.82931 | 34141 ft | 481 kts | 295° |
| 2026-04-29 14:53 | 21.42015 | 109.76603 | 34163 ft | 480 kts | 295° |
| 2026-04-29 14:54 | 21.45169 | 109.70290 | 34151 ft | 479 kts | 295° |
| 2026-04-29 14:54 | 21.48315 | 109.63985 | 34165 ft | 479 kts | 295° |
| 2026-04-29 14:55 | 21.51457 | 109.57680 | 34153 ft | 479 kts | 295° |
| 2026-04-29 14:55 | 21.54069 | 109.52433 | 34173 ft | 479 kts | 295° |
| 2026-04-29 14:56 | 21.57209 | 109.46124 | 34156 ft | 479 kts | 296° |
| 2026-04-29 14:56 | 21.61019 | 109.40214 | 34155 ft | 483 kts | 305° |
| 2026-04-29 14:57 | 21.65288 | 109.34632 | 34164 ft | 484 kts | 307° |
| 2026-04-29 14:57 | 21.69641 | 109.29098 | 34167 ft | 484 kts | 307° |
| 2026-04-29 14:58 | 21.73989 | 109.23566 | 34170 ft | 484 kts | 307° |
| 2026-04-29 14:58 | 21.78322 | 109.18021 | 34166 ft | 484 kts | 307° |
| 2026-04-29 14:59 | 21.82646 | 109.12470 | 34172 ft | 484 kts | 307° |
| 2026-04-29 14:59 | 21.86969 | 109.06926 | 34173 ft | 483 kts | 307° |
| 2026-04-29 15:00 | 21.91292 | 109.01404 | 34175 ft | 482 kts | 307° |
| 2026-04-29 15:00 | 21.95615 | 108.95880 | 34180 ft | 482 kts | 307° |
| 2026-04-29 15:01 | 21.99931 | 108.90358 | 34185 ft | 481 kts | 307° |
| 2026-04-29 15:01 | 22.04235 | 108.84845 | 34182 ft | 480 kts | 307° |
| 2026-04-29 15:02 | 22.08531 | 108.79333 | 34181 ft | 480 kts | 307° |
| 2026-04-29 15:02 | 22.12834 | 108.73813 | 34184 ft | 480 kts | 307° |
| 2026-04-29 15:03 | 22.17142 | 108.68308 | 34190 ft | 480 kts | 307° |
| 2026-04-29 15:03 | 22.21448 | 108.62797 | 34185 ft | 480 kts | 307° |
| 2026-04-29 15:04 | 22.25726 | 108.57319 | 34185 ft | 480 kts | 307° |
| 2026-04-29 15:04 | 22.30028 | 108.51802 | 34193 ft | 480 kts | 307° |
| 2026-04-29 15:05 | 22.34328 | 108.46283 | 34190 ft | 480 kts | 307° |
| 2026-04-29 15:05 | 22.38627 | 108.40759 | 34191 ft | 480 kts | 307° |